• Join FlightAware (Why Join?)
  • Login
  • US Flag 
07:45AM EDT


 

Airport Tracker/Info


-or-


 

Live Flight TrackerFlight Track Log ✈ SWA37 ✈ 01-Aug-2013 ✈ KDAL - KHOU

Flight Track Log - Related Links

Times and Time Zones

All times are in EDT time to prevent confusion due to time zone crossing. See the SWA37 flight status page for this flight to view local times or setup timezone preferences in your user account.

Time Position Orientation Groundspeed Altitude Reporting Facility
EDT Latitude Longitude Course Direction KTS MPH feet Rate Location/Type
04:38PM 32.8333 -96.8333 140° Southeast 173 199 1,500  Level Dallas / Fort Worth TRACON
04:39PM 32.7667 -96.7667 140° Southeast 238 274 4,400 2,580 Climbing Dallas / Fort Worth TRACON
04:40PM 32.7167 -96.7333 151° Southeast 275 316 7,200 2,640 Climbing Dallas / Fort Worth TRACON
04:41PM 32.6208 -96.7475 187° South 294 338 10,400 1,380 Climbing Fort Worth Center
04:42PM 32.5375 -96.7925 204° Southwest 295 339 10,400 1,080 Level Fort Worth Center
04:43PM 32.4625 -96.8347 205° Southwest 317 365 12,600 2,640 Climbing Fort Worth Center
04:44PM 32.3667 -96.8894 206° Southwest 342 394 15,700 2,700 Climbing Fort Worth Center
04:45PM 32.2731 -96.9392 204° Southwest 356 410 18,000 2,280 Climbing Fort Worth Center
04:46PM 32.1686 -96.9200 171° South 367 422 20,300 1,920 Climbing Fort Worth Center
04:47PM 32.0642 -96.9011 171° South 372 428 21,900 1,800 Climbing Fort Worth Center
04:48PM 31.9575 -96.8794 170° South 387 445 24,000 1,800 Climbing Fort Worth Center
04:49PM 31.8406 -96.8606 172° South 411 473 25,500 1,680 Climbing Fort Worth Center
04:50PM 31.7608 -96.8472 172° South 422 486 27,000 1,620 Climbing Houston Center
04:51PM 31.6444 -96.8275 172° South 420 483 28,400 1,320 Climbing Houston Center
04:52PM 31.5233 -96.8075 172° South 431 496 29,800 1,200 Climbing Houston Center
04:53PM 31.4003 -96.7858 171° South 441 507 31,000 960 Climbing Houston Center
04:54PM 31.2814 -96.7297 158° South 457 526 31,900 900 Climbing Houston Center
04:55PM 31.1642 -96.6728 157° South 451 519 32,900 -1,140 Climbing Houston Center
04:56PM 31.0283 -96.6061 157° South 448 516 29,600 -2,940 Descending Houston Center
04:57PM 30.9133 -96.5503 157° South 444 511 26,900 -2,520 Descending Houston Center
04:58PM 30.8017 -96.4961 157° South 432 497 24,400 -2,400 Descending Houston Center
04:59PM 30.6939 -96.4425 157° South 419 482 22,000 -1,980 Descending Houston Center
05:00PM 30.5950 -96.3953 158° South 384 442 20,400 -1,860 Descending Houston Center
05:01PM 30.5011 -96.3478 156° South 366 421 18,200 -2,220 Descending Houston Center
05:02PM 30.4069 -96.3028 158° South 362 417 15,900 -2,400 Descending Houston Center
05:03PM 30.3125 -96.2575 158° South 361 415 13,300 -2,100 Descending Houston Center
05:05PM 30.1753 -96.1922 158° South 335 386 10,800 -1,440 Descending Houston Center
05:05PM 30.1219 -96.1614 153° Southeast 333 383 10,400 -540 Descending Houston Center
05:06PM 30.0486 -96.1006 144° Southeast 333 383 9,900 -240 Descending Houston Center
05:07PM 30.0206 -96.0119 110° East 327 376 10,000 -60 Climbing Houston Center
05:08PM 29.9800 -95.9006 113° Southeast 313 360 9,800 -1,140 Descending Houston Center
05:09PM 29.9456 -95.8164 115° Southeast 292 336 7,700 -1,680 Descending Houston Center
05:10PM 29.9131 -95.7342 114° Southeast 283 326 6,400 -840 Descending Houston Center
05:12PM 29.8811 -95.6553 115° Southeast 272 313 6,000 -300 Descending Houston Center
05:13PM 29.8481 -95.5756 116° Southeast 276 318 5,900 -540 Descending Houston Center
05:14PM 29.8217 -95.5097 115° Southeast 233 268 5,000 -1,380 Descending Houston Center
05:15PM 29.7697 -95.4269 126° Southeast 227 261 2,900 -1,200 Descending Houston Center
05:16PM 29.7300 -95.3811 135° Southeast 186 214 2,300 -780 Descending Houston Center
05:17PM 29.7039 -95.3483 133° Southeast 202 232 1,500 -840 Descending Houston Center
05:18PM 29.6756 -95.3153 135° Southeast 169 194 800 -720 Descending Houston Center
05:19PM 29.6506 -95.2856 134° Southeast 145 167 100 -720 Descending Houston Center
05:21PM 29.6454 -95.2789 123° Southeast  Level Estimated